sensor_id;sensor_type;location;lat;lon;timestamp;P1;durP1;ratioP1;P2;durP2;ratioP2
17193;SDS011;8713;48.388;10.928;2022-11-14T03:39:01;5.32;;;3.47;;
17193;SDS011;8713;48.388;10.928;2022-11-14T03:40:30;5.45;;;3.70;;
17193;SDS011;8713;48.388;10.928;2022-11-14T03:41:58;5.15;;;3.60;;
17193;SDS011;8713;48.388;10.928;2022-11-14T03:43:29;5.32;;;3.63;;
17193;SDS011;8713;48.388;10.928;2022-11-14T03:44:59;6.72;;;3.67;;
17193;SDS011;8713;48.388;10.928;2022-11-14T03:46:27;7.50;;;4.30;;
17193;SDS011;8713;48.388;10.928;2022-11-14T03:47:55;5.45;;;4.00;;
17193;SDS011;8713;48.388;10.928;2022-11-14T03:49:23;4.70;;;3.50;;
17193;SDS011;8713;48.388;10.928;2022-11-14T03:50:51;5.22;;;3.53;;
17193;SDS011;8713;48.388;10.928;2022-11-14T03:52:19;6.75;;;4.20;;
17193;SDS011;8713;48.388;10.928;2022-11-14T03:53:47;4.88;;;3.40;;
17193;SDS011;8713;48.388;10.928;2022-11-14T03:55:15;5.18;;;3.63;;
17193;SDS011;8713;48.388;10.928;2022-11-14T03:56:44;4.60;;;3.00;;
17193;SDS011;8713;48.388;10.928;2022-11-14T03:58:11;4.97;;;3.33;;
17193;SDS011;8713;48.388;10.928;2022-11-14T03:59:39;5.32;;;3.50;;
17193;SDS011;8713;48.388;10.928;2022-11-14T04:01:08;4.32;;;2.88;;
17193;SDS011;8713;48.388;10.928;2022-11-14T04:02:35;4.97;;;3.42;;
17193;SDS011;8713;48.388;10.928;2022-11-14T04:04:04;4.60;;;3.85;;
17193;SDS011;8713;48.388;10.928;2022-11-14T04:05:32;4.38;;;3.20;;
17193;SDS011;8713;48.388;10.928;2022-11-14T04:07:00;5.85;;;3.83;;
17193;SDS011;8713;48.388;10.928;2022-11-14T04:08:28;6.68;;;4.47;;
17193;SDS011;8713;48.388;10.928;2022-11-14T04:09:57;5.40;;;4.18;;
17193;SDS011;8713;48.388;10.928;2022-11-14T04:11:25;5.57;;;4.07;;
17193;SDS011;8713;48.388;10.928;2022-11-14T04:12:53;5.35;;;4.00;;
17193;SDS011;8713;48.388;10.928;2022-11-14T04:14:21;4.55;;;3.47;;
17193;SDS011;8713;48.388;10.928;2022-11-14T04:15:56;6.45;;;4.15;;
17193;SDS011;8713;48.388;10.928;2022-11-14T04:17:24;6.50;;;4.28;;
17193;SDS011;8713;48.388;10.928;2022-11-14T04:18:53;5.45;;;3.85;;
17193;SDS011;8713;48.388;10.928;2022-11-14T04:20:20;4.70;;;3.35;;
17193;SDS011;8713;48.388;10.928;2022-11-14T04:21:48;5.20;;;3.50;;
17193;SDS011;8713;48.388;10.928;2022-11-14T04:23:16;5.70;;;3.80;;
17193;SDS011;8713;48.388;10.928;2022-11-14T04:24:44;6.10;;;3.05;;
17193;SDS011;8713;48.388;10.928;2022-11-14T04:26:12;4.45;;;2.85;;
17193;SDS011;8713;48.388;10.928;2022-11-14T04:27:40;5.95;;;3.30;;
17193;SDS011;8713;48.388;10.928;2022-11-14T04:29:08;4.65;;;3.20;;
17193;SDS011;8713;48.388;10.928;2022-11-14T04:30:37;4.82;;;3.22;;
17193;SDS011;8713;48.388;10.928;2022-11-14T04:32:05;5.38;;;3.95;;
17193;SDS011;8713;48.388;10.928;2022-11-14T04:33:33;5.03;;;3.45;;
17193;SDS011;8713;48.388;10.928;2022-11-14T04:35:01;5.40;;;3.38;;
17193;SDS011;8713;48.388;10.928;2022-11-14T04:36:29;4.43;;;3.20;;
17193;SDS011;8713;48.388;10.928;2022-11-14T04:37:57;4.80;;;3.30;;
17193;SDS011;8713;48.388;10.928;2022-11-14T04:39:25;4.97;;;3.40;;
17193;SDS011;8713;48.388;10.928;2022-11-14T04:40:53;5.15;;;3.10;;
17193;SDS011;8713;48.388;10.928;2022-11-14T04:42:21;4.18;;;2.78;;
17193;SDS011;8713;48.388;10.928;2022-11-14T04:43:49;4.10;;;2.55;;
17193;SDS011;8713;48.388;10.928;2022-11-14T04:45:17;4.00;;;2.67;;
17193;SDS011;8713;48.388;10.928;2022-11-14T04:46:45;3.55;;;2.63;;
17193;SDS011;8713;48.388;10.928;2022-11-14T04:48:12;4.47;;;3.05;;
17193;SDS011;8713;48.388;10.928;2022-11-14T04:49:41;4.15;;;3.08;;
17193;SDS011;8713;48.388;10.928;2022-11-14T04:51:09;3.85;;;2.88;;
17193;SDS011;8713;48.388;10.928;2022-11-14T04:52:37;5.22;;;3.58;;
17193;SDS011;8713;48.388;10.928;2022-11-14T04:54:06;5.72;;;3.47;;
17193;SDS011;8713;48.388;10.928;2022-11-14T04:55:34;4.93;;;3.40;;
17193;SDS011;8713;48.388;10.928;2022-11-14T04:57:02;4.88;;;3.20;;
17193;SDS011;8713;48.388;10.928;2022-11-14T04:58:30;4.88;;;3.47;;
17193;SDS011;8713;48.388;10.928;2022-11-14T04:59:58;6.82;;;3.88;;
17193;SDS011;8713;48.388;10.928;2022-11-14T05:01:26;5.45;;;3.88;;
17193;SDS011;8713;48.388;10.928;2022-11-14T05:02:56;4.90;;;3.40;;
17193;SDS011;8713;48.388;10.928;2022-11-14T05:04:26;5.15;;;3.72;;
17193;SDS011;8713;48.388;10.928;2022-11-14T05:05:54;5.93;;;3.67;;
17193;SDS011;8713;48.388;10.928;2022-11-14T05:07:27;4.57;;;3.22;;
17193;SDS011;8713;48.388;10.928;2022-11-14T05:08:55;4.53;;;3.60;;
17193;SDS011;8713;48.388;10.928;2022-11-14T05:10:23;4.88;;;3.47;;
17193;SDS011;8713;48.388;10.928;2022-11-14T05:11:51;5.35;;;3.35;;
17193;SDS011;8713;48.388;10.928;2022-11-14T05:13:20;5.78;;;3.63;;
17193;SDS011;8713;48.388;10.928;2022-11-14T05:14:48;6.13;;;4.10;;
17193;SDS011;8713;48.388;10.928;2022-11-14T05:16:16;4.88;;;3.63;;
17193;SDS011;8713;48.388;10.928;2022-11-14T05:17:44;4.38;;;3.45;;
17193;SDS011;8713;48.388;10.928;2022-11-14T05:19:12;5.78;;;3.35;;
17193;SDS011;8713;48.388;10.928;2022-11-14T05:20:39;6.03;;;3.67;;
17193;SDS011;8713;48.388;10.928;2022-11-14T05:22:07;5.10;;;3.67;;
17193;SDS011;8713;48.388;10.928;2022-11-14T05:23:35;4.30;;;3.33;;
17193;SDS011;8713;48.388;10.928;2022-11-14T05:25:04;4.60;;;3.53;;
17193;SDS011;8713;48.388;10.928;2022-11-14T05:26:33;4.40;;;3.58;;
17193;SDS011;8713;48.388;10.928;2022-11-14T05:28:01;5.00;;;3.67;;
17193;SDS011;8713;48.388;10.928;2022-11-14T05:29:29;5.50;;;3.95;;
17193;SDS011;8713;48.388;10.928;2022-11-14T05:31:01;6.65;;;3.80;;
17193;SDS011;8713;48.388;10.928;2022-11-14T05:32:31;5.25;;;3.58;;
17193;SDS011;8713;48.388;10.928;2022-11-14T05:33:59;6.57;;;4.15;;
17193;SDS011;8713;48.388;10.928;2022-11-14T05:35:27;5.10;;;3.85;;
17193;SDS011;8713;48.388;10.928;2022-11-14T05:36:55;5.70;;;3.60;;
17193;SDS011;8713;48.388;10.928;2022-11-14T05:38:23;5.43;;;3.65;;
17193;SDS011;8713;48.388;10.928;2022-11-14T05:39:51;4.35;;;3.22;;
17193;SDS011;8713;48.388;10.928;2022-11-14T05:41:18;5.60;;;3.33;;
17193;SDS011;8713;48.388;10.928;2022-11-14T05:42:47;5.65;;;3.28;;
17193;SDS011;8713;48.388;10.928;2022-11-14T05:44:15;4.20;;;3.20;;
17193;SDS011;8713;48.388;10.928;2022-11-14T05:45:43;6.22;;;3.22;;
17193;SDS011;8713;48.388;10.928;2022-11-14T05:47:11;4.13;;;3.10;;
17193;SDS011;8713;48.388;10.928;2022-11-14T05:48:39;4.28;;;3.30;;
17193;SDS011;8713;48.388;10.928;2022-11-14T05:50:07;4.45;;;3.13;;
17193;SDS011;8713;48.388;10.928;2022-11-14T05:51:36;4.15;;;2.90;;
17193;SDS011;8713;48.388;10.928;2022-11-14T05:53:04;5.95;;;3.60;;
17193;SDS011;8713;48.388;10.928;2022-11-14T05:54:32;5.10;;;3.20;;
17193;SDS011;8713;48.388;10.928;2022-11-14T05:56:01;4.93;;;3.50;;
17193;SDS011;8713;48.388;10.928;2022-11-14T05:57:31;5.47;;;3.00;;
17193;SDS011;8713;48.388;10.928;2022-11-14T05:58:59;5.75;;;3.67;;
17193;SDS011;8713;48.388;10.928;2022-11-14T06:00:27;5.47;;;3.67;;
17193;SDS011;8713;48.388;10.928;2022-11-14T06:01:55;4.32;;;3.35;;
17193;SDS011;8713;48.388;10.928;2022-11-14T06:03:22;5.07;;;3.80;;
17193;SDS011;8713;48.388;10.928;2022-11-14T06:04:50;5.88;;;3.47;;
17193;SDS011;8713;48.388;10.928;2022-11-14T06:06:19;5.35;;;3.72;;
17193;SDS011;8713;48.388;10.928;2022-11-14T06:07:53;5.43;;;3.85;;
17193;SDS011;8713;48.388;10.928;2022-11-14T06:09:22;4.10;;;3.03;;
17193;SDS011;8713;48.388;10.928;2022-11-14T06:10:50;4.32;;;3.22;;
17193;SDS011;8713;48.388;10.928;2022-11-14T06:12:18;4.20;;;2.88;;
17193;SDS011;8713;48.388;10.928;2022-11-14T06:13:46;4.97;;;3.83;;
17193;SDS011;8713;48.388;10.928;2022-11-14T06:15:15;4.85;;;3.30;;
17193;SDS011;8713;48.388;10.928;2022-11-14T06:16:43;4.45;;;3.33;;
17193;SDS011;8713;48.388;10.928;2022-11-14T06:18:11;4.82;;;3.45;;
17193;SDS011;8713;48.388;10.928;2022-11-14T06:19:39;3.58;;;2.88;;
17193;SDS011;8713;48.388;10.928;2022-11-14T06:21:09;3.83;;;2.60;;
17193;SDS011;8713;48.388;10.928;2022-11-14T06:22:39;3.42;;;2.83;;
17193;SDS011;8713;48.388;10.928;2022-11-14T06:24:08;3.53;;;2.85;;
17193;SDS011;8713;48.388;10.928;2022-11-14T06:25:35;3.65;;;2.95;;
17193;SDS011;8713;48.388;10.928;2022-11-14T06:27:03;3.35;;;2.95;;
17193;SDS011;8713;48.388;10.928;2022-11-14T06:28:32;4.28;;;3.08;;
17193;SDS011;8713;48.388;10.928;2022-11-14T06:30:00;5.30;;;3.22;;
17193;SDS011;8713;48.388;10.928;2022-11-14T06:31:28;5.10;;;3.63;;
17193;SDS011;8713;48.388;10.928;2022-11-14T06:32:57;3.83;;;3.13;;
17193;SDS011;8713;48.388;10.928;2022-11-14T06:34:25;4.90;;;2.80;;
17193;SDS011;8713;48.388;10.928;2022-11-14T06:35:57;4.00;;;2.90;;
17193;SDS011;8713;48.388;10.928;2022-11-14T06:37:27;4.03;;;2.92;;
17193;SDS011;8713;48.388;10.928;2022-11-14T06:38:55;5.80;;;3.42;;
17193;SDS011;8713;48.388;10.928;2022-11-14T06:40:23;8.52;;;3.67;;
17193;SDS011;8713;48.388;10.928;2022-11-14T06:41:51;6.03;;;3.92;;
17193;SDS011;8713;48.388;10.928;2022-11-14T06:43:19;9.07;;;6.22;;
17193;SDS011;8713;48.388;10.928;2022-11-14T06:44:48;4.88;;;3.42;;
17193;SDS011;8713;48.388;10.928;2022-11-14T06:46:17;6.20;;;3.05;;
17193;SDS011;8713;48.388;10.928;2022-11-14T06:47:47;3.60;;;3.00;;
17193;SDS011;8713;48.388;10.928;2022-11-14T06:49:15;5.55;;;3.28;;
17193;SDS011;8713;48.388;10.928;2022-11-14T06:50:43;3.97;;;2.78;;
17193;SDS011;8713;48.388;10.928;2022-11-14T06:52:10;4.78;;;3.08;;
17193;SDS011;8713;48.388;10.928;2022-11-14T06:53:39;5.70;;;3.20;;
17193;SDS011;8713;48.388;10.928;2022-11-14T06:55:07;5.28;;;3.35;;
17193;SDS011;8713;48.388;10.928;2022-11-14T06:56:35;6.10;;;3.80;;
17193;SDS011;8713;48.388;10.928;2022-11-14T06:58:04;6.38;;;4.00;;
17193;SDS011;8713;48.388;10.928;2022-11-14T06:59:32;4.85;;;3.45;;
17193;SDS011;8713;48.388;10.928;2022-11-14T07:01:19;5.50;;;4.55;;
17193;SDS011;8713;48.388;10.928;2022-11-14T07:02:49;6.07;;;3.60;;
17193;SDS011;8713;48.388;10.928;2022-11-14T07:04:17;4.40;;;3.40;;
17193;SDS011;8713;48.388;10.928;2022-11-14T07:05:46;6.53;;;3.10;;
17193;SDS011;8713;48.388;10.928;2022-11-14T07:07:14;6.13;;;2.97;;
17193;SDS011;8713;48.388;10.928;2022-11-14T07:08:42;5.68;;;3.20;;
17193;SDS011;8713;48.388;10.928;2022-11-14T07:10:10;4.40;;;2.53;;
17193;SDS011;8713;48.388;10.928;2022-11-14T07:11:38;7.75;;;3.53;;
17193;SDS011;8713;48.388;10.928;2022-11-14T07:13:06;9.02;;;4.15;;
17193;SDS011;8713;48.388;10.928;2022-11-14T07:14:36;4.57;;;2.60;;
17193;SDS011;8713;48.388;10.928;2022-11-14T07:16:04;3.22;;;2.40;;
17193;SDS011;8713;48.388;10.928;2022-11-14T07:17:33;3.08;;;2.45;;
17193;SDS011;8713;48.388;10.928;2022-11-14T07:19:03;4.05;;;2.63;;
17193;SDS011;8713;48.388;10.928;2022-11-14T07:20:33;2.83;;;2.17;;
17193;SDS011;8713;48.388;10.928;2022-11-14T07:22:02;2.47;;;2.00;;
17193;SDS011;8713;48.388;10.928;2022-11-14T07:23:30;2.90;;;2.30;;
17193;SDS011;8713;48.388;10.928;2022-11-14T07:25:00;2.15;;;1.75;;
17193;SDS011;8713;48.388;10.928;2022-11-14T07:26:28;2.72;;;2.13;;
17193;SDS011;8713;48.388;10.928;2022-11-14T07:27:56;3.08;;;2.10;;
17193;SDS011;8713;48.388;10.928;2022-11-14T07:29:25;2.70;;;2.30;;
17193;SDS011;8713;48.388;10.928;2022-11-14T07:30:53;2.67;;;2.20;;
17193;SDS011;8713;48.388;10.928;2022-11-14T07:32:21;2.22;;;1.90;;
17193;SDS011;8713;48.388;10.928;2022-11-14T07:33:49;2.10;;;1.90;;
17193;SDS011;8713;48.388;10.928;2022-11-14T07:35:17;2.05;;;1.85;;
17193;SDS011;8713;48.388;10.928;2022-11-14T07:36:46;2.35;;;2.15;;
17193;SDS011;8713;48.388;10.928;2022-11-14T07:38:14;1.98;;;1.77;;
17193;SDS011;8713;48.388;10.928;2022-11-14T07:39:42;2.17;;;1.98;;
17193;SDS011;8713;48.388;10.928;2022-11-14T07:41:11;1.77;;;1.60;;
17193;SDS011;8713;48.388;10.928;2022-11-14T07:42:42;3.20;;;2.47;;
17193;SDS011;8713;48.388;10.928;2022-11-14T07:44:10;2.00;;;1.80;;
17193;SDS011;8713;48.388;10.928;2022-11-14T07:45:39;2.15;;;1.95;;
17193;SDS011;8713;48.388;10.928;2022-11-14T07:47:06;2.42;;;1.92;;
17193;SDS011;8713;48.388;10.928;2022-11-14T07:48:35;1.73;;;1.63;;
17193;SDS011;8713;48.388;10.928;2022-11-14T07:50:04;1.92;;;1.70;;
17193;SDS011;8713;48.388;10.928;2022-11-14T07:51:32;2.67;;;1.92;;
17193;SDS011;8713;48.388;10.928;2022-11-14T07:53:00;2.63;;;1.90;;
17193;SDS011;8713;48.388;10.928;2022-11-14T07:54:29;2.15;;;1.95;;
17193;SDS011;8713;48.388;10.928;2022-11-14T07:56:01;2.38;;;2.00;;
17193;SDS011;8713;48.388;10.928;2022-11-14T07:57:32;2.10;;;1.90;;
17193;SDS011;8713;48.388;10.928;2022-11-14T07:59:00;1.83;;;1.65;;
17193;SDS011;8713;48.388;10.928;2022-11-14T08:00:28;1.90;;;1.70;;
17193;SDS011;8713;48.388;10.928;2022-11-14T08:01:57;2.10;;;1.67;;
17193;SDS011;8713;48.388;10.928;2022-11-14T08:03:24;4.53;;;2.38;;
17193;SDS011;8713;48.388;10.928;2022-11-14T08:04:52;2.85;;;2.20;;
17193;SDS011;8713;48.388;10.928;2022-11-14T08:06:20;3.88;;;2.05;;
17193;SDS011;8713;48.388;10.928;2022-11-14T08:07:51;1.55;;;1.45;;
17193;SDS011;8713;48.388;10.928;2022-11-14T08:09:20;3.67;;;2.95;;
17193;SDS011;8713;48.388;10.928;2022-11-14T08:10:49;6.25;;;2.38;;
17193;SDS011;8713;48.388;10.928;2022-11-14T08:12:17;4.63;;;2.05;;
17193;SDS011;8713;48.388;10.928;2022-11-14T08:13:45;2.92;;;1.95;;
17193;SDS011;8713;48.388;10.928;2022-11-14T08:15:13;2.90;;;2.08;;
17193;SDS011;8713;48.388;10.928;2022-11-14T08:16:41;2.20;;;1.98;;
17193;SDS011;8713;48.388;10.928;2022-11-14T08:18:09;3.03;;;1.70;;
17193;SDS011;8713;48.388;10.928;2022-11-14T08:19:37;3.67;;;1.88;;
17193;SDS011;8713;48.388;10.928;2022-11-14T08:21:05;2.70;;;2.40;;
17193;SDS011;8713;48.388;10.928;2022-11-14T08:22:34;1.60;;;1.50;;
17193;SDS011;8713;48.388;10.928;2022-11-14T08:24:02;2.80;;;2.20;;
17193;SDS011;8713;48.388;10.928;2022-11-14T08:25:30;4.40;;;1.67;;
17193;SDS011;8713;48.388;10.928;2022-11-14T08:26:58;2.40;;;1.80;;
17193;SDS011;8713;48.388;10.928;2022-11-14T08:28:26;2.08;;;1.52;;
17193;SDS011;8713;48.388;10.928;2022-11-14T08:29:54;1.98;;;1.65;;
17193;SDS011;8713;48.388;10.928;2022-11-14T08:31:22;2.20;;;1.90;;
17193;SDS011;8713;48.388;10.928;2022-11-14T08:32:51;2.17;;;1.88;;
17193;SDS011;8713;48.388;10.928;2022-11-14T08:34:19;1.85;;;1.67;;
17193;SDS011;8713;48.388;10.928;2022-11-14T08:35:49;2.78;;;1.73;;
17193;SDS011;8713;48.388;10.928;2022-11-14T08:37:16;3.13;;;1.88;;
17193;SDS011;8713;48.388;10.928;2022-11-14T08:38:44;3.92;;;2.17;;
17193;SDS011;8713;48.388;10.928;2022-11-14T08:40:12;4.00;;;2.53;;
17193;SDS011;8713;48.388;10.928;2022-11-14T08:41:41;3.92;;;2.78;;
17193;SDS011;8713;48.388;10.928;2022-11-14T08:43:09;2.88;;;2.25;;
17193;SDS011;8713;48.388;10.928;2022-11-14T08:44:38;3.20;;;2.50;;
17193;SDS011;8713;48.388;10.928;2022-11-14T08:46:06;3.40;;;2.25;;
17193;SDS011;8713;48.388;10.928;2022-11-14T08:47:34;5.50;;;2.60;;
17193;SDS011;8713;48.388;10.928;2022-11-14T08:49:02;3.75;;;2.75;;
17193;SDS011;8713;48.388;10.928;2022-11-14T08:50:30;5.32;;;3.00;;
17193;SDS011;8713;48.388;10.928;2022-11-14T08:51:59;5.22;;;3.10;;
17193;SDS011;8713;48.388;10.928;2022-11-14T08:53:27;5.85;;;2.78;;
17193;SDS011;8713;48.388;10.928;2022-11-14T08:54:54;4.22;;;3.22;;
17193;SDS011;8713;48.388;10.928;2022-11-14T08:56:22;6.05;;;2.45;;
17193;SDS011;8713;48.388;10.928;2022-11-14T08:57:51;3.97;;;2.53;;
17193;SDS011;8713;48.388;10.928;2022-11-14T08:59:20;3.67;;;1.90;;
17193;SDS011;8713;48.388;10.928;2022-11-14T09:00:47;3.10;;;2.38;;
17193;SDS011;8713;48.388;10.928;2022-11-14T09:02:15;7.43;;;2.70;;
17193;SDS011;8713;48.388;10.928;2022-11-14T09:03:45;2.97;;;2.00;;
17193;SDS011;8713;48.388;10.928;2022-11-14T09:05:12;4.20;;;1.85;;
17193;SDS011;8713;48.388;10.928;2022-11-14T09:06:40;3.72;;;2.40;;
17193;SDS011;8713;48.388;10.928;2022-11-14T09:08:09;3.58;;;2.95;;
17193;SDS011;8713;48.388;10.928;2022-11-14T09:09:37;3.30;;;2.63;;
17193;SDS011;8713;48.388;10.928;2022-11-14T09:11:05;3.17;;;2.33;;
17193;SDS011;8713;48.388;10.928;2022-11-14T09:12:33;4.57;;;1.98;;
17193;SDS011;8713;48.388;10.928;2022-11-14T09:14:02;5.22;;;2.75;;
17193;SDS011;8713;48.388;10.928;2022-11-14T09:15:30;4.25;;;2.58;;
17193;SDS011;8713;48.388;10.928;2022-11-14T09:17:00;4.00;;;2.42;;
17193;SDS011;8713;48.388;10.928;2022-11-14T09:18:28;2.97;;;2.33;;
17193;SDS011;8713;48.388;10.928;2022-11-14T09:19:57;3.85;;;1.92;;
17193;SDS011;8713;48.388;10.928;2022-11-14T09:21:25;4.90;;;2.10;;
17193;SDS011;8713;48.388;10.928;2022-11-14T09:22:53;2.85;;;1.77;;
17193;SDS011;8713;48.388;10.928;2022-11-14T09:24:25;3.88;;;2.30;;
17193;SDS011;8713;48.388;10.928;2022-11-14T09:25:53;3.13;;;2.10;;
17193;SDS011;8713;48.388;10.928;2022-11-14T09:27:25;4.07;;;2.70;;
17193;SDS011;8713;48.388;10.928;2022-11-14T09:28:54;4.75;;;2.70;;
17193;SDS011;8713;48.388;10.928;2022-11-14T09:30:22;2.53;;;2.20;;
17193;SDS011;8713;48.388;10.928;2022-11-14T09:31:50;3.97;;;2.45;;
17193;SDS011;8713;48.388;10.928;2022-11-14T09:33:18;4.90;;;2.40;;
17193;SDS011;8713;48.388;10.928;2022-11-14T09:34:46;4.45;;;2.08;;
17193;SDS011;8713;48.388;10.928;2022-11-14T09:36:14;2.60;;;1.95;;
17193;SDS011;8713;48.388;10.928;2022-11-14T09:37:44;3.97;;;2.60;;
17193;SDS011;8713;48.388;10.928;2022-11-14T09:39:12;4.32;;;3.15;;
17193;SDS011;8713;48.388;10.928;2022-11-14T09:42:39;3.08;;;2.00;;
17193;SDS011;8713;48.388;10.928;2022-11-14T09:44:40;8.73;;;3.88;;
17193;SDS011;8713;48.388;10.928;2022-11-14T09:46:20;10.60;;;4.43;;
17193;SDS011;8713;48.388;10.928;2022-11-14T09:47:55;10.80;;;4.28;;
17193;SDS011;8713;48.388;10.928;2022-11-14T09:49:34;9.73;;;4.30;;
17193;SDS011;8713;48.388;10.928;2022-11-14T09:51:06;13.48;;;3.78;;
17193;SDS011;8713;48.388;10.928;2022-11-14T09:52:39;10.27;;;4.03;;
17193;SDS011;8713;48.388;10.928;2022-11-14T09:54:23;11.35;;;4.20;;
17193;SDS011;8713;48.388;10.928;2022-11-14T09:55:58;19.73;;;5.75;;
17193;SDS011;8713;48.388;10.928;2022-11-14T09:57:26;20.52;;;6.47;;
17193;SDS011;8713;48.388;10.928;2022-11-14T09:58:55;18.08;;;5.85;;
17193;SDS011;8713;48.388;10.928;2022-11-14T10:00:24;21.17;;;6.00;;
17193;SDS011;8713;48.388;10.928;2022-11-14T10:01:59;20.42;;;6.57;;
17193;SDS011;8713;48.388;10.928;2022-11-14T10:03:43;19.30;;;5.63;;
17193;SDS011;8713;48.388;10.928;2022-11-14T10:07:36;17.70;;;6.80;;
17193;SDS011;8713;48.388;10.928;2022-11-14T10:09:27;19.35;;;6.47;;
17193;SDS011;8713;48.388;10.928;2022-11-14T10:11:22;15.68;;;5.70;;
17193;SDS011;8713;48.388;10.928;2022-11-14T10:13:16;14.20;;;5.25;;
17193;SDS011;8713;48.388;10.928;2022-11-14T10:15:16;9.98;;;4.00;;
17193;SDS011;8713;48.388;10.928;2022-11-14T10:17:35;14.52;;;5.03;;
17193;SDS011;8713;48.388;10.928;2022-11-14T10:19:12;16.67;;;5.10;;
17193;SDS011;8713;48.388;10.928;2022-11-14T10:20:55;13.07;;;5.10;;
17193;SDS011;8713;48.388;10.928;2022-11-14T10:24:35;27.20;;;7.15;;
17193;SDS011;8713;48.388;10.928;2022-11-14T10:26:25;18.45;;;6.35;;
17193;SDS011;8713;48.388;10.928;2022-11-14T10:28:19;23.67;;;6.25;;
17193;SDS011;8713;48.388;10.928;2022-11-14T10:30:11;18.60;;;6.32;;
17193;SDS011;8713;48.388;10.928;2022-11-14T10:31:52;16.60;;;5.43;;
17193;SDS011;8713;48.388;10.928;2022-11-14T10:33:31;18.33;;;6.10;;
17193;SDS011;8713;48.388;10.928;2022-11-14T10:35:23;19.58;;;6.13;;
17193;SDS011;8713;48.388;10.928;2022-11-14T10:37:05;13.88;;;6.15;;
17193;SDS011;8713;48.388;10.928;2022-11-14T10:38:50;19.40;;;6.47;;
17193;SDS011;8713;48.388;10.928;2022-11-14T10:42:24;21.33;;;6.30;;
17193;SDS011;8713;48.388;10.928;2022-11-14T10:44:01;13.30;;;4.97;;
17193;SDS011;8713;48.388;10.928;2022-11-14T10:45:43;19.30;;;5.85;;
17193;SDS011;8713;48.388;10.928;2022-11-14T10:47:17;13.75;;;5.70;;
17193;SDS011;8713;48.388;10.928;2022-11-14T10:48:48;15.95;;;5.93;;
17193;SDS011;8713;48.388;10.928;2022-11-14T10:50:18;16.35;;;4.97;;
17193;SDS011;8713;48.388;10.928;2022-11-14T10:51:52;14.27;;;6.57;;
17193;SDS011;8713;48.388;10.928;2022-11-14T10:55:07;15.32;;;5.90;;
17193;SDS011;8713;48.388;10.928;2022-11-14T10:56:49;18.23;;;6.45;;
17193;SDS011;8713;48.388;10.928;2022-11-14T10:58:20;18.17;;;6.88;;
17193;SDS011;8713;48.388;10.928;2022-11-14T10:59:48;13.63;;;5.57;;
17193;SDS011;8713;48.388;10.928;2022-11-14T11:03:04;15.75;;;5.88;;
17193;SDS011;8713;48.388;10.928;2022-11-14T11:04:35;17.23;;;5.45;;
17193;SDS011;8713;48.388;10.928;2022-11-14T11:06:08;16.95;;;5.25;;
17193;SDS011;8713;48.388;10.928;2022-11-14T11:07:53;20.13;;;6.75;;
17193;SDS011;8713;48.388;10.928;2022-11-14T11:09:44;28.10;;;9.13;;
17193;SDS011;8713;48.388;10.928;2022-11-14T11:11:50;25.58;;;8.18;;
17193;SDS011;8713;48.388;10.928;2022-11-14T11:13:56;57.83;;;13.90;;
17193;SDS011;8713;48.388;10.928;2022-11-14T11:15:28;37.45;;;10.60;;
17193;SDS011;8713;48.388;10.928;2022-11-14T11:17:07;23.95;;;8.20;;
17193;SDS011;8713;48.388;10.928;2022-11-14T11:18:42;30.40;;;13.02;;
17193;SDS011;8713;48.388;10.928;2022-11-14T11:21:51;21.02;;;9.93;;
17193;SDS011;8713;48.388;10.928;2022-11-14T11:23:21;19.17;;;8.52;;
17193;SDS011;8713;48.388;10.928;2022-11-14T11:24:52;18.63;;;8.60;;
17193;SDS011;8713;48.388;10.928;2022-11-14T11:26:25;19.75;;;8.18;;
17193;SDS011;8713;48.388;10.928;2022-11-14T11:28:13;13.95;;;6.07;;
17193;SDS011;8713;48.388;10.928;2022-11-14T11:29:43;13.88;;;5.63;;
17193;SDS011;8713;48.388;10.928;2022-11-14T11:31:11;11.98;;;5.82;;
17193;SDS011;8713;48.388;10.928;2022-11-14T11:32:39;13.05;;;5.57;;
17193;SDS011;8713;48.388;10.928;2022-11-14T11:34:07;12.95;;;5.50;;
17193;SDS011;8713;48.388;10.928;2022-11-14T11:35:36;15.80;;;5.88;;
17193;SDS011;8713;48.388;10.928;2022-11-14T11:37:08;6.72;;;4.32;;
17193;SDS011;8713;48.388;10.928;2022-11-14T11:38:48;18.08;;;6.22;;
17193;SDS011;8713;48.388;10.928;2022-11-14T11:40:18;17.85;;;6.40;;
17193;SDS011;8713;48.388;10.928;2022-11-14T11:41:56;13.52;;;6.05;;
17193;SDS011;8713;48.388;10.928;2022-11-14T11:43:44;10.95;;;4.78;;
17193;SDS011;8713;48.388;10.928;2022-11-14T11:45:24;15.88;;;6.07;;
17193;SDS011;8713;48.388;10.928;2022-11-14T11:46:53;13.18;;;5.97;;
17193;SDS011;8713;48.388;10.928;2022-11-14T11:48:27;13.23;;;6.03;;
17193;SDS011;8713;48.388;10.928;2022-11-14T11:50:04;12.90;;;5.55;;
17193;SDS011;8713;48.388;10.928;2022-11-14T11:51:42;13.07;;;6.38;;
17193;SDS011;8713;48.388;10.928;2022-11-14T11:53:16;15.90;;;5.60;;
17193;SDS011;8713;48.388;10.928;2022-11-14T11:56:30;11.20;;;5.97;;
17193;SDS011;8713;48.388;10.928;2022-11-14T11:58:08;15.65;;;6.10;;
17193;SDS011;8713;48.388;10.928;2022-11-14T11:59:51;16.00;;;6.25;;
17193;SDS011;8713;48.388;10.928;2022-11-14T12:01:26;15.77;;;6.45;;
17193;SDS011;8713;48.388;10.928;2022-11-14T12:02:54;22.27;;;7.57;;
17193;SDS011;8713;48.388;10.928;2022-11-14T12:04:23;19.77;;;7.68;;
17193;SDS011;8713;48.388;10.928;2022-11-14T12:06:02;21.30;;;8.15;;
17193;SDS011;8713;48.388;10.928;2022-11-14T12:07:37;23.38;;;8.65;;
17193;SDS011;8713;48.388;10.928;2022-11-14T12:10:53;25.55;;;9.73;;
17193;SDS011;8713;48.388;10.928;2022-11-14T12:18:11;22.35;;;9.25;;
17193;SDS011;8713;48.388;10.928;2022-11-14T12:21:56;25.80;;;8.82;;
17193;SDS011;8713;48.388;10.928;2022-11-14T12:31:41;23.50;;;8.73;;
17193;SDS011;8713;48.388;10.928;2022-11-14T12:33:10;23.40;;;8.13;;
17193;SDS011;8713;48.388;10.928;2022-11-14T12:35:15;23.08;;;8.18;;
17193;SDS011;8713;48.388;10.928;2022-11-14T12:37:07;29.80;;;10.25;;
17193;SDS011;8713;48.388;10.928;2022-11-14T12:38:52;23.25;;;9.25;;
17193;SDS011;8713;48.388;10.928;2022-11-14T12:40:31;28.23;;;10.32;;
17193;SDS011;8713;48.388;10.928;2022-11-14T12:42:04;19.83;;;8.38;;
17193;SDS011;8713;48.388;10.928;2022-11-14T12:43:35;17.40;;;7.43;;
17193;SDS011;8713;48.388;10.928;2022-11-14T12:47:27;17.50;;;6.82;;
17193;SDS011;8713;48.388;10.928;2022-11-14T12:48:56;18.42;;;7.22;;
17193;SDS011;8713;48.388;10.928;2022-11-14T12:50:29;15.15;;;6.43;;
17193;SDS011;8713;48.388;10.928;2022-11-14T12:52:37;18.63;;;7.55;;
17193;SDS011;8713;48.388;10.928;2022-11-14T12:57:48;20.60;;;7.82;;
17193;SDS011;8713;48.388;10.928;2022-11-14T12:59:27;21.67;;;7.72;;
17193;SDS011;8713;48.388;10.928;2022-11-14T13:01:19;24.10;;;8.23;;
17193;SDS011;8713;48.388;10.928;2022-11-14T13:03:12;23.67;;;8.85;;
17193;SDS011;8713;48.388;10.928;2022-11-14T13:07:30;11.25;;;5.45;;
17193;SDS011;8713;48.388;10.928;2022-11-14T13:10:54;13.25;;;6.03;;
17193;SDS011;8713;48.388;10.928;2022-11-14T13:12:29;14.25;;;6.18;;
17193;SDS011;8713;48.388;10.928;2022-11-14T13:14:18;13.25;;;5.93;;
17193;SDS011;8713;48.388;10.928;2022-11-14T13:16:20;18.42;;;6.72;;
17193;SDS011;8713;48.388;10.928;2022-11-14T13:18:31;16.23;;;6.53;;
17193;SDS011;8713;48.388;10.928;2022-11-14T13:26:38;12.30;;;6.30;;
17193;SDS011;8713;48.388;10.928;2022-11-14T13:30:05;18.13;;;7.93;;
17193;SDS011;8713;48.388;10.928;2022-11-14T13:31:47;14.77;;;7.15;;
17193;SDS011;8713;48.388;10.928;2022-11-14T13:35:20;16.55;;;7.38;;
17193;SDS011;8713;48.388;10.928;2022-11-14T13:37:09;20.08;;;7.50;;
17193;SDS011;8713;48.388;10.928;2022-11-14T13:39:03;16.92;;;6.43;;
17193;SDS011;8713;48.388;10.928;2022-11-14T13:40:38;14.32;;;6.13;;
17193;SDS011;8713;48.388;10.928;2022-11-14T13:44:30;13.13;;;5.38;;
17193;SDS011;8713;48.388;10.928;2022-11-14T13:48:47;13.65;;;6.10;;